Terminal Aerodrome Forecast
Issued by NWS

Home | Current Version | Previous Version | Text Only | Print | Product List | Glossary On
Versions: 1 2 3 4 5 6 7 8 9 10 11 12 13 14 15
000
FTUS45 KABQ 312340
TAFAEG
TAF
KAEG 312340Z 0100/0124 27009KT P6SM VCSH BKN090
      TEMPO 0100/0102 VRB20G33KT -TSRA BKN070CB BKN120
     FM010400 31006KT P6SM BKN100
     FM012130 25008KT P6SM VCSH SCT090 BKN120=

USA.gov is the U.S. government's official web portal to all federal, state and local government web resources and services.